Sea Fate — 3FNV5 — position and weather

sailwx.info

Track history (hours):
 
Tides and Currents Weather Stations Pressure Air Temp Water Temp Dewpoint Dewpoint Depression Visibility Wind Speed Wind Dir Waves Ship Positions

Sea Fate

Last reported at 2018-Jan-19 02:55 UTC. Time now 2018-Jan-19 11:46 UTC.
Position N 24°33' E 118°06'.

Length 152 m; draft 5.4 m.

Type: Cargo ship. MMSI: 354167000.

Date/timePositionNaut miles runAvg speedWind from/ knotsBaromVisibWave heightAir tempDewpointWater temp
2018-Jan-19 02:55N 24°33' E 118°06'0 0.5
2018-Jan-19 02:30N 24°33' E 118°05'3 6.9
2018-Jan-19 02:00N 24°30' E 118°04'4 8.8
2018-Jan-19 01:31N 24°25' E 118°05'4 7.9
2018-Jan-19 00:59N 24°22' E 118°08'3 7.3
2018-Jan-19 00:31N 24°20' E 118°11'3 6.5
2018-Jan-19 00:00N 24°19' E 118°14'0 0.4
2018-Jan-18 23:28N 24°19' E 118°14'0 0.0
2018-Jan-18 22:58N 24°19' E 118°14'0 0.0
2018-Jan-18 22:28N 24°19' E 118°14'0 0.0
2018-Jan-18 21:55N 24°19' E 118°14'0 0.0
2018-Jan-18 21:28N 24°19' E 118°14'0 0.0
2018-Jan-18 20:55N 24°19' E 118°14'0 0.0
2018-Jan-18 20:28N 24°19' E 118°14'0 0.1
2018-Jan-18 19:58N 24°19' E 118°14'0 0.0
2018-Jan-18 19:28N 24°19' E 118°14'0 0.1
2018-Jan-18 18:58N 24°19' E 118°14'0 0.0
2018-Jan-18 18:28N 24°19' E 118°14'0 0.1
2018-Jan-18 17:58N 24°19' E 118°14'0 0.1
2018-Jan-18 17:28N 24°19' E 118°14'0 0.1
2018-Jan-18 16:58N 24°19' E 118°14'0 0.1
2018-Jan-18 16:25N 24°19' E 118°14'0 0.0
2018-Jan-18 15:58N 24°19' E 118°14'0 0.1
2018-Jan-18 15:28N 24°19' E 118°14'0 0.0
2018-Jan-18 14:58N 24°19' E 118°14'0 0.1
2018-Jan-18 14:28N 24°19' E 118°14'0 0.0
2018-Jan-18 13:58N 24°19' E 118°14'0 0.0
2018-Jan-18 13:28N 24°19' E 118°14'0 0.1
2018-Jan-18 12:58N 24°19' E 118°14'0 0.0
2018-Jan-18 12:28N 24°19' E 118°14'0 0.0
2018-Jan-18 11:58N 24°19' E 118°14'0 0.0
2018-Jan-18 11:28N 24°19' E 118°14'0 0.2
2018-Jan-18 10:58N 24°19' E 118°14'0 0.1
2018-Jan-18 10:25N 24°19' E 118°14'0 0.0
2018-Jan-18 09:58N 24°19' E 118°14'0 0.0
2018-Jan-18 09:28N 24°19' E 118°14'0 0.1
2018-Jan-18 08:58N 24°19' E 118°14'0 0.0
2018-Jan-18 08:28N 24°19' E 118°14'0 0.1
2018-Jan-18 07:58N 24°19' E 118°14'0 0.0
2018-Jan-18 07:28N 24°19' E 118°14'0 0.1
2018-Jan-18 06:58N 24°19' E 118°14'0 0.1
2018-Jan-18 06:25N 24°19' E 118°14'0 0.1
2018-Jan-18 05:58N 24°19' E 118°14'0 0.1
2018-Jan-18 05:25N 24°19' E 118°14'0 0.1
2018-Jan-18 04:58N 24°19' E 118°14'0 0.0
2018-Jan-18 04:28N 24°19' E 118°14'0 0.0
2018-Jan-18 03:58N 24°19' E 118°14'0 0.1
2018-Jan-18 03:28N 24°19' E 118°14'0 0.1
2018-Jan-18 02:55N 24°19' E 118°14'2 3.7
2018-Jan-18 02:30N 24°18' E 118°14'4 8.8
2018-Jan-18 02:00N 24°13' E 118°14'510.7
2018-Jan-18 01:30N 24°08' E 118°11'  
Track history (hours):
 
Tides and Currents Weather Stations Pressure Air Temp Water Temp Dewpoint Dewpoint Depression Visibility Wind Speed Wind Dir Waves Ship Positions

Sea Fate

Last reported at 2018-Jan-19 02:55 UTC. Time now 2018-Jan-19 11:46 UTC.
Position N 24°33' E 118°06'.

Length 152 m; draft 5.4 m.

Type: Cargo ship. MMSI: 354167000.

Date/timePositionNaut miles runAvg speedWind from/ knotsBaromVisibWave heightAir tempDewpointWater temp
2018-Jan-19 02:55N 24°33' E 118°06'0 0.5
2018-Jan-19 02:30N 24°33' E 118°05'3 6.9
2018-Jan-19 02:00N 24°30' E 118°04'4 8.8
2018-Jan-19 01:31N 24°25' E 118°05'4 7.9
2018-Jan-19 00:59N 24°22' E 118°08'3 7.3
2018-Jan-19 00:31N 24°20' E 118°11'3 6.5
2018-Jan-19 00:00N 24°19' E 118°14'0 0.4
2018-Jan-18 23:28N 24°19' E 118°14'0 0.0
2018-Jan-18 22:58N 24°19' E 118°14'0 0.0
2018-Jan-18 22:28N 24°19' E 118°14'0 0.0
2018-Jan-18 21:55N 24°19' E 118°14'0 0.0
2018-Jan-18 21:28N 24°19' E 118°14'0 0.0
2018-Jan-18 20:55N 24°19' E 118°14'0 0.0
2018-Jan-18 20:28N 24°19' E 118°14'0 0.1
2018-Jan-18 19:58N 24°19' E 118°14'0 0.0
2018-Jan-18 19:28N 24°19' E 118°14'0 0.1
2018-Jan-18 18:58N 24°19' E 118°14'0 0.0
2018-Jan-18 18:28N 24°19' E 118°14'0 0.1
2018-Jan-18 17:58N 24°19' E 118°14'0 0.1
2018-Jan-18 17:28N 24°19' E 118°14'0 0.1
2018-Jan-18 16:58N 24°19' E 118°14'0 0.1
2018-Jan-18 16:25N 24°19' E 118°14'0 0.0
2018-Jan-18 15:58N 24°19' E 118°14'0 0.1
2018-Jan-18 15:28N 24°19' E 118°14'0 0.0
2018-Jan-18 14:58N 24°19' E 118°14'0 0.1
2018-Jan-18 14:28N 24°19' E 118°14'0 0.0
2018-Jan-18 13:58N 24°19' E 118°14'0 0.0
2018-Jan-18 13:28N 24°19' E 118°14'0 0.1
2018-Jan-18 12:58N 24°19' E 118°14'0 0.0
2018-Jan-18 12:28N 24°19' E 118°14'0 0.0
2018-Jan-18 11:58N 24°19' E 118°14'0 0.0
2018-Jan-18 11:28N 24°19' E 118°14'0 0.2
2018-Jan-18 10:58N 24°19' E 118°14'0 0.1
2018-Jan-18 10:25N 24°19' E 118°14'0 0.0
2018-Jan-18 09:58N 24°19' E 118°14'0 0.0
2018-Jan-18 09:28N 24°19' E 118°14'0 0.1
2018-Jan-18 08:58N 24°19' E 118°14'0 0.0
2018-Jan-18 08:28N 24°19' E 118°14'0 0.1
2018-Jan-18 07:58N 24°19' E 118°14'0 0.0
2018-Jan-18 07:28N 24°19' E 118°14'0 0.1
2018-Jan-18 06:58N 24°19' E 118°14'0 0.1
2018-Jan-18 06:25N 24°19' E 118°14'0 0.1
2018-Jan-18 05:58N 24°19' E 118°14'0 0.1
2018-Jan-18 05:25N 24°19' E 118°14'0 0.1
2018-Jan-18 04:58N 24°19' E 118°14'0 0.0
2018-Jan-18 04:28N 24°19' E 118°14'0 0.0
2018-Jan-18 03:58N 24°19' E 118°14'0 0.1
2018-Jan-18 03:28N 24°19' E 118°14'0 0.1
2018-Jan-18 02:55N 24°19' E 118°14'2 3.7
2018-Jan-18 02:30N 24°18' E 118°14'4 8.8
2018-Jan-18 02:00N 24°13' E 118°14'510.7
2018-Jan-18 01:30N 24°08' E 118°11'  

Dump ship's entire track history